createdAt,value
2022-07-27T00:01:20.849Z,1.00
2022-07-27T00:03:23.599Z,1.20
2022-07-27T00:05:26.272Z,0.20
2022-07-27T00:07:29.372Z,0.08
2022-07-27T00:09:32.452Z,0.65
2022-07-27T00:11:35.251Z,1.25
2022-07-27T00:13:38.429Z,1.80
2022-07-27T00:15:40.896Z,0.20
2022-07-27T00:17:43.928Z,0.20
2022-07-27T00:19:46.457Z,0.45
2022-07-27T00:21:48.941Z,4.68
2022-07-27T00:23:54.776Z,0.80
2022-07-27T00:25:57.617Z,0.38
2022-07-27T00:28:00.107Z,0.20
2022-07-27T00:30:02.739Z,0.90
2022-07-27T00:32:12.325Z,1.67
2022-07-27T00:34:15.286Z,0.00
2022-07-27T00:36:18.106Z,0.30
2022-07-27T00:38:20.691Z,0.17
2022-07-27T00:40:23.291Z,0.10
2022-07-27T00:42:28.526Z,0.30
2022-07-27T00:44:32.925Z,0.75
2022-07-27T00:46:35.655Z,0.25
2022-07-27T00:48:38.273Z,0.03
2022-07-27T00:50:46.331Z,0.73
2022-07-27T00:52:49.176Z,0.40
2022-07-27T00:54:52.961Z,0.20
2022-07-27T00:56:55.537Z,1.17
2022-07-27T00:58:58.459Z,0.10
2022-07-27T01:01:01.033Z,0.15
2022-07-27T01:03:08.595Z,0.60
2022-07-27T01:05:11.886Z,0.43
2022-07-27T01:07:16.966Z,0.38
2022-07-27T01:09:38.157Z,0.47
2022-07-27T01:11:41.441Z,0.10
2022-07-27T01:13:44.045Z,0.25
2022-07-27T01:15:46.681Z,0.70
2022-07-27T01:17:49.261Z,0.32
2022-07-27T01:19:52.528Z,0.10
2022-07-27T01:21:55.024Z,1.33
2022-07-27T01:23:57.479Z,1.98
2022-07-27T01:26:05.652Z,0.75
2022-07-27T01:28:08.134Z,0.85
2022-07-27T01:30:26.673Z,0.45
2022-07-27T01:32:29.237Z,5.93
2022-07-27T01:34:33.747Z,1.20
2022-07-27T01:36:36.473Z,2.25
2022-07-27T01:38:39.073Z,0.77
2022-07-27T01:40:41.779Z,0.17
2022-07-27T01:42:44.283Z,0.60
2022-07-27T01:44:46.756Z,0.20
2022-07-27T01:46:49.524Z,0.25
2022-07-27T01:48:52.161Z,0.47
2022-07-27T01:50:55.248Z,0.25
2022-07-27T01:52:57.825Z,0.43
2022-07-27T01:55:00.460Z,0.32
2022-07-27T01:57:03.149Z,4.32
2022-07-27T01:59:05.819Z,0.03
2022-07-27T02:01:08.490Z,1.08
2022-07-27T02:03:12.067Z,0.20
2022-07-27T02:05:14.820Z,0.38
2022-07-27T02:07:17.369Z,1.65
2022-07-27T02:09:21.061Z,0.55
2022-07-27T02:11:42.091Z,0.15
2022-07-27T02:13:47.325Z,0.10
2022-07-27T02:15:49.918Z,0.35
2022-07-27T02:17:57.350Z,0.43
2022-07-27T02:20:00.308Z,0.00
2022-07-27T02:22:02.807Z,0.32
2022-07-27T02:24:05.860Z,0.00
2022-07-27T02:26:09.534Z,0.20
2022-07-27T02:28:12.243Z,0.10
2022-07-27T02:30:17.841Z,0.32
2022-07-27T02:32:21.018Z,0.65
2022-07-27T02:34:23.609Z,0.73
2022-07-27T02:36:29.445Z,0.82
2022-07-27T02:38:32.111Z,0.35
2022-07-27T02:40:34.704Z,0.00
2022-07-27T02:42:37.209Z,0.43
2022-07-27T02:44:39.689Z,1.40
2022-07-27T02:46:42.275Z,0.22
2022-07-27T02:48:44.927Z,0.47
2022-07-27T02:50:47.524Z,0.65
2022-07-27T02:52:50.016Z,0.00
2022-07-27T02:54:52.594Z,0.00
2022-07-27T02:56:56.249Z,0.70
2022-07-27T02:58:58.736Z,0.70
2022-07-27T03:01:01.277Z,0.10
2022-07-27T03:03:03.935Z,0.38
2022-07-27T03:05:07.909Z,0.22
2022-07-27T03:07:10.654Z,1.33
2022-07-27T03:09:13.802Z,0.00
2022-07-27T03:11:16.706Z,0.28
2022-07-27T03:13:19.243Z,0.47
2022-07-27T03:15:21.841Z,0.88
2022-07-27T03:17:24.376Z,0.00
2022-07-27T03:19:30.153Z,0.00
2022-07-27T03:21:33.040Z,0.20
2022-07-27T03:23:35.664Z,0.20
2022-07-27T03:25:38.197Z,1.23
2022-07-27T03:27:40.760Z,0.00
2022-07-27T03:29:43.267Z,1.10
2022-07-27T03:31:45.958Z,0.30
2022-07-27T03:33:49.773Z,0.52
2022-07-27T03:35:52.246Z,0.00
2022-07-27T03:37:54.954Z,0.00
2022-07-27T03:39:57.553Z,0.00
2022-07-27T03:42:00.084Z,0.60
2022-07-27T03:44:02.583Z,0.00
2022-07-27T03:46:05.217Z,0.40
2022-07-27T03:48:07.792Z,0.00
2022-07-27T03:50:10.380Z,1.85
2022-07-27T03:52:17.488Z,0.15
2022-07-27T03:54:20.472Z,0.75
2022-07-27T03:56:23.015Z,0.63
2022-07-27T03:58:25.602Z,0.30
2022-07-27T04:00:28.242Z,0.10
2022-07-27T04:02:30.788Z,0.00
2022-07-27T04:04:33.433Z,0.25
2022-07-27T04:06:35.935Z,0.00
2022-07-27T04:08:38.792Z,0.03
2022-07-27T04:10:42.164Z,1.45
2022-07-27T04:12:46.760Z,0.60
2022-07-27T04:14:50.826Z,0.13
2022-07-27T04:16:53.370Z,0.00
2022-07-27T04:18:55.942Z,0.45
2022-07-27T04:20:59.540Z,0.93
2022-07-27T04:23:02.019Z,0.10
2022-07-27T04:25:05.102Z,0.00
2022-07-27T04:27:07.687Z,0.00
2022-07-27T04:29:10.623Z,0.43
2022-07-27T04:31:13.472Z,0.00
2022-07-27T04:33:16.221Z,0.10
2022-07-27T04:35:22.743Z,0.52
2022-07-27T04:37:28.823Z,0.30
2022-07-27T04:39:31.436Z,0.00
2022-07-27T04:41:34.126Z,0.00
2022-07-27T04:43:36.648Z,0.00
2022-07-27T04:45:39.309Z,0.00
2022-07-27T04:47:41.877Z,0.00
2022-07-27T04:49:44.420Z,0.20
2022-07-27T04:51:47.043Z,0.00
2022-07-27T04:53:54.103Z,0.10
2022-07-27T04:56:01.081Z,2.55
2022-07-27T04:58:03.738Z,0.00
2022-07-27T05:00:06.947Z,0.00
2022-07-27T05:02:09.494Z,0.00
2022-07-27T05:04:12.104Z,0.03
2022-07-27T05:06:14.737Z,0.00
2022-07-27T05:08:17.835Z,0.03
2022-07-27T05:10:20.961Z,0.15
2022-07-27T05:12:23.847Z,0.17
2022-07-27T05:14:26.384Z,0.57
2022-07-27T05:16:29.345Z,0.00
2022-07-27T05:18:32.534Z,0.52
2022-07-27T05:20:35.017Z,0.05
2022-07-27T05:22:39.719Z,0.28
2022-07-27T05:24:43.074Z,0.35
2022-07-27T05:26:45.436Z,0.00
2022-07-27T05:28:47.972Z,0.00
2022-07-27T05:30:50.551Z,1.65
2022-07-27T05:32:53.643Z,0.22
2022-07-27T05:34:56.236Z,1.48
2022-07-27T05:36:58.807Z,0.38
2022-07-27T05:39:01.309Z,6.57
2022-07-27T05:41:03.901Z,6.80
2022-07-27T05:43:06.514Z,6.35
2022-07-27T05:45:10.390Z,4.60
2022-07-27T05:47:12.888Z,6.60
2022-07-27T05:49:15.833Z,4.03
2022-07-27T05:51:18.806Z,5.45
2022-07-27T05:53:21.367Z,4.93
2022-07-27T05:55:25.254Z,5.97
2022-07-27T05:57:27.771Z,9.88
2022-07-27T05:59:32.249Z,10.00
2022-07-27T06:01:35.130Z,11.00
2022-07-27T06:03:38.682Z,13.02
2022-07-27T06:05:41.312Z,13.63
2022-07-27T06:07:59.374Z,8.35
2022-07-27T06:10:02.108Z,8.40
2022-07-27T06:12:06.563Z,5.10
2022-07-27T06:14:09.623Z,8.30
2022-07-27T06:16:12.437Z,5.05
2022-07-27T06:18:18.371Z,7.45
2022-07-27T06:20:23.656Z,8.38
2022-07-27T06:22:26.495Z,10.32
2022-07-27T06:24:29.099Z,13.25
2022-07-27T06:26:31.650Z,9.95
2022-07-27T06:28:34.221Z,14.25
2022-07-27T06:30:36.915Z,9.82
2022-07-27T06:32:39.539Z,14.00
2022-07-27T06:34:43.276Z,13.75
2022-07-27T06:36:45.869Z,8.27
2022-07-27T06:38:49.057Z,11.25
2022-07-27T06:40:55.161Z,6.55
2022-07-27T06:42:58.665Z,8.43
2022-07-27T06:45:01.331Z,6.68
2022-07-27T06:47:04.015Z,5.18
2022-07-27T06:49:08.295Z,4.30
2022-07-27T06:51:11.100Z,7.57
2022-07-27T06:53:20.762Z,5.07
2022-07-27T06:55:23.863Z,2.50
2022-07-27T06:57:26.751Z,3.28
2022-07-27T06:59:43.491Z,4.70
2022-07-27T07:01:48.812Z,7.07
2022-07-27T07:03:51.874Z,3.78
2022-07-27T07:05:54.654Z,5.55
2022-07-27T07:07:58.281Z,12.60
2022-07-27T07:10:00.862Z,3.60
2022-07-27T07:12:03.724Z,3.03
2022-07-27T07:14:06.290Z,3.45
2022-07-27T07:16:08.887Z,9.93
2022-07-27T07:18:12.442Z,10.68
2022-07-27T07:20:15.134Z,7.03
2022-07-27T07:22:17.769Z,4.75
2022-07-27T07:24:20.306Z,2.50
2022-07-27T07:26:22.918Z,4.45
2022-07-27T07:28:25.500Z,5.70
2022-07-27T07:30:28.641Z,3.47
2022-07-27T07:32:33.599Z,6.18
2022-07-27T07:34:37.664Z,6.38
2022-07-27T07:36:40.372Z,5.88
2022-07-27T07:38:44.529Z,3.65
2022-07-27T07:40:47.127Z,5.95
2022-07-27T07:42:57.973Z,4.75
2022-07-27T07:45:01.066Z,4.18
2022-07-27T07:47:04.818Z,4.55
2022-07-27T07:49:07.524Z,4.93
2022-07-27T07:51:10.926Z,6.15
2022-07-27T07:53:15.263Z,3.67
2022-07-27T07:55:26.187Z,4.20
2022-07-27T07:57:28.881Z,4.60
2022-07-27T07:59:31.635Z,6.82
2022-07-27T08:01:34.339Z,4.75
2022-07-27T08:03:38.451Z,5.93
2022-07-27T08:05:41.094Z,5.90
2022-07-27T08:07:45.262Z,4.22
2022-07-27T08:09:47.918Z,3.17
2022-07-27T08:11:50.631Z,9.05
2022-07-27T08:13:53.232Z,5.25
2022-07-27T08:15:56.084Z,23.25
2022-07-27T08:17:59.345Z,6.07
2022-07-27T08:20:02.451Z,3.17
2022-07-27T08:22:06.268Z,6.35
2022-07-27T08:24:09.014Z,5.25
2022-07-27T08:26:11.793Z,3.25
2022-07-27T08:28:15.381Z,6.00
2022-07-27T08:30:22.547Z,4.82
2022-07-27T08:32:31.342Z,3.83
2022-07-27T08:34:37.398Z,5.00
2022-07-27T08:36:39.985Z,2.60
2022-07-27T08:38:42.562Z,5.07
2022-07-27T08:40:47.877Z,5.03
2022-07-27T08:42:50.831Z,2.25
2022-07-27T08:44:54.938Z,1.65
2022-07-27T08:46:58.199Z,3.83
2022-07-27T08:49:02.908Z,6.63
2022-07-27T08:51:07.739Z,5.45
2022-07-27T08:53:13.933Z,3.47
2022-07-27T08:55:17.619Z,2.83
2022-07-27T08:57:21.415Z,3.75
2022-07-27T08:59:26.179Z,5.10
2022-07-27T09:01:31.641Z,4.00
2022-07-27T09:03:34.227Z,3.47
2022-07-27T09:05:43.651Z,8.40
2022-07-27T09:07:46.795Z,7.25
2022-07-27T09:09:49.808Z,2.80
2022-07-27T09:12:04.972Z,5.47
2022-07-27T09:14:12.687Z,3.55
2022-07-27T09:16:20.376Z,3.15
2022-07-27T09:18:25.808Z,4.30
2022-07-27T09:20:28.389Z,4.15
2022-07-27T09:22:56.322Z,2.75
2022-07-27T09:25:03.231Z,3.60
2022-07-27T09:27:06.408Z,3.30
2022-07-27T09:29:15.183Z,1.70
2022-07-27T09:31:18.164Z,1.95
2022-07-27T09:33:20.844Z,5.03
2022-07-27T09:35:33.988Z,5.80
2022-07-27T09:37:36.756Z,4.50
2022-07-27T09:39:39.483Z,3.75
2022-07-27T09:41:45.920Z,2.65
2022-07-27T09:48:35.380Z,2.65
2022-07-27T09:50:48.846Z,2.00
2022-07-27T09:53:41.916Z,3.05
2022-07-27T09:55:47.544Z,2.35
2022-07-27T09:57:55.726Z,3.35
2022-07-27T10:00:14.036Z,5.22
2022-07-27T10:02:17.191Z,2.58
2022-07-27T10:04:20.021Z,4.93
2022-07-27T10:06:25.260Z,1.90
2022-07-27T10:08:28.996Z,2.65
2022-07-27T10:10:31.599Z,3.65
2022-07-27T10:12:34.179Z,6.88
2022-07-27T10:14:37.211Z,4.72
2022-07-27T10:16:44.050Z,2.70
2022-07-27T10:19:16.242Z,4.93
2022-07-27T10:21:19.472Z,1.85
2022-07-27T10:23:29.816Z,4.25
2022-07-27T10:25:37.309Z,2.40
2022-07-27T10:27:41.052Z,4.55
2022-07-27T10:29:44.984Z,2.90
2022-07-27T10:32:00.449Z,2.50
2022-07-27T10:34:06.145Z,2.72
2022-07-27T10:36:17.239Z,4.15
2022-07-27T10:38:21.830Z,3.40
2022-07-27T10:40:36.661Z,2.63
2022-07-27T10:42:39.872Z,5.07
2022-07-27T10:44:55.564Z,4.20
2022-07-27T10:47:03.518Z,2.35
2022-07-27T10:49:20.460Z,2.28
2022-07-27T10:51:36.051Z,3.42
2022-07-27T10:54:09.769Z,1.98
2022-07-27T10:56:06.745Z,1.80
2022-07-27T10:58:09.285Z,2.45
2022-07-27T11:00:17.854Z,6.32
2022-07-27T11:02:39.260Z,2.65
2022-07-27T11:04:47.897Z,3.13
2022-07-27T11:07:23.566Z,5.03
2022-07-27T11:11:42.276Z,5.90
2022-07-27T11:13:45.918Z,5.53
2022-07-27T11:16:22.857Z,3.00
2022-07-27T11:18:32.570Z,5.60
2022-07-27T11:20:35.174Z,2.55
2022-07-27T11:25:04.157Z,1.80
2022-07-27T11:27:16.859Z,2.22
2022-07-27T11:29:22.649Z,2.80
2022-07-27T11:31:52.793Z,3.30
2022-07-27T11:33:52.078Z,4.82
2022-07-27T11:36:01.501Z,2.42
2022-07-27T11:38:07.807Z,3.80
2022-07-27T11:40:37.488Z,3.72
2022-07-27T11:42:38.503Z,1.67
2022-07-27T11:44:46.335Z,2.15
2022-07-27T11:46:51.157Z,1.40
2022-07-27T11:49:09.346Z,4.75
2022-07-27T11:51:12.444Z,3.35
2022-07-27T11:53:20.910Z,2.97
2022-07-27T11:55:23.844Z,5.25
2022-07-27T11:57:32.240Z,1.17
2022-07-27T11:59:36.917Z,1.67
2022-07-27T12:01:45.202Z,2.45
2022-07-27T12:03:48.770Z,7.00
2022-07-27T12:05:51.928Z,1.58
2022-07-27T12:07:54.688Z,2.75
2022-07-27T12:09:59.722Z,1.38
2022-07-27T12:12:10.156Z,2.83
2022-07-27T12:14:17.146Z,2.45
2022-07-27T12:16:20.076Z,1.98
2022-07-27T12:18:24.106Z,5.05
2022-07-27T12:20:33.810Z,1.25
2022-07-27T12:22:37.813Z,2.10
2022-07-27T12:24:42.937Z,4.13
2022-07-27T12:27:06.794Z,1.13
2022-07-27T12:29:12.632Z,2.60
2022-07-27T12:31:19.135Z,1.23
2022-07-27T12:33:37.552Z,3.80
2022-07-27T12:35:47.219Z,1.42
2022-07-27T12:37:58.052Z,2.10
2022-07-27T12:40:00.827Z,2.40
2022-07-27T12:42:08.052Z,7.32
2022-07-27T12:44:18.367Z,1.40
2022-07-27T12:46:21.140Z,12.48
2022-07-27T12:48:26.265Z,7.10
2022-07-27T12:50:29.044Z,3.83
2022-07-27T12:52:32.913Z,3.97
2022-07-27T12:54:35.666Z,3.15
2022-07-27T12:56:38.468Z,4.85
2022-07-27T12:58:58.176Z,3.05
2022-07-27T13:01:01.608Z,6.50
2022-07-27T13:03:05.362Z,3.97
2022-07-27T13:05:09.866Z,3.97
2022-07-27T13:07:12.565Z,1.83
2022-07-27T13:09:15.575Z,3.35
2022-07-27T13:11:18.621Z,3.35
2022-07-27T13:13:24.960Z,2.08
2022-07-27T13:15:27.815Z,3.10
2022-07-27T13:17:30.570Z,1.15
2022-07-27T13:19:33.396Z,2.53
2022-07-27T13:21:36.147Z,1.30
2022-07-27T13:23:38.830Z,2.03
2022-07-27T13:25:43.482Z,1.45
2022-07-27T13:27:48.511Z,2.60
2022-07-27T13:29:52.276Z,2.28
2022-07-27T13:31:57.270Z,0.75
2022-07-27T13:34:00.477Z,2.50
2022-07-27T13:36:05.294Z,1.83
2022-07-27T13:38:08.570Z,2.78
2022-07-27T13:40:17.166Z,1.55
2022-07-27T13:42:21.364Z,4.53
2022-07-27T13:44:58.298Z,1.25
2022-07-27T13:46:48.693Z,2.28
2022-07-27T13:48:51.288Z,3.13
2022-07-27T13:50:53.856Z,2.78
2022-07-27T13:52:56.533Z,2.30
2022-07-27T13:54:59.101Z,1.98
2022-07-27T13:57:01.612Z,2.55
2022-07-27T13:59:05.173Z,5.25
2022-07-27T14:01:08.868Z,3.00
2022-07-27T14:03:11.762Z,1.67
2022-07-27T14:05:15.865Z,4.65
2022-07-27T14:07:18.755Z,5.05
2022-07-27T14:09:22.177Z,1.02
2022-07-27T14:11:24.866Z,3.63
2022-07-27T14:13:27.475Z,0.65
2022-07-27T14:15:30.235Z,2.22
2022-07-27T14:17:32.880Z,1.55
2022-07-27T14:19:37.047Z,1.35
2022-07-27T14:21:39.641Z,0.90
2022-07-27T14:23:42.483Z,1.15
2022-07-27T14:25:45.111Z,3.55
2022-07-27T14:27:47.691Z,6.55
2022-07-27T14:29:50.234Z,1.92
2022-07-27T14:31:52.943Z,1.65
2022-07-27T14:33:55.494Z,2.25
2022-07-27T14:35:58.358Z,4.07
2022-07-27T14:38:02.572Z,2.03
2022-07-27T14:40:06.593Z,3.13
2022-07-27T14:42:09.414Z,1.83
2022-07-27T14:44:11.975Z,2.63
2022-07-27T14:46:14.553Z,1.95
2022-07-27T14:48:28.251Z,2.63
2022-07-27T14:50:34.999Z,1.08
2022-07-27T14:52:37.655Z,7.20
2022-07-27T14:54:41.375Z,2.42
2022-07-27T14:56:44.429Z,2.22
2022-07-27T14:58:46.966Z,1.70
2022-07-27T15:00:49.611Z,2.05
2022-07-27T15:02:53.187Z,3.92
2022-07-27T15:04:55.865Z,0.38
2022-07-27T15:06:59.995Z,0.60
2022-07-27T15:09:04.327Z,3.55
2022-07-27T15:11:06.985Z,1.10
2022-07-27T15:13:09.750Z,2.45
2022-07-27T15:15:12.306Z,5.70
2022-07-27T15:17:15.019Z,2.08
2022-07-27T15:19:18.558Z,2.90
2022-07-27T15:21:21.158Z,0.55
2022-07-27T15:23:23.810Z,1.15
2022-07-27T15:25:26.475Z,2.15
2022-07-27T15:27:29.023Z,2.35
2022-07-27T15:29:31.661Z,2.97
2022-07-27T15:31:34.236Z,1.08
2022-07-27T15:33:38.622Z,4.65
2022-07-27T15:35:41.769Z,1.27
2022-07-27T15:37:54.833Z,2.75
2022-07-27T15:40:17.624Z,1.52
2022-07-27T15:42:22.984Z,2.47
2022-07-27T15:44:25.507Z,2.20
2022-07-27T15:46:28.193Z,5.25
2022-07-27T15:48:31.207Z,2.63
2022-07-27T15:50:34.205Z,2.60
2022-07-27T15:52:37.019Z,2.35
2022-07-27T15:54:45.360Z,7.72
2022-07-27T15:56:48.095Z,4.72
2022-07-27T15:58:51.877Z,3.08
2022-07-27T16:00:57.588Z,0.95
2022-07-27T16:03:00.497Z,3.17
2022-07-27T16:05:04.079Z,2.47
2022-07-27T16:07:08.535Z,3.45
2022-07-27T16:09:11.982Z,1.05
2022-07-27T16:11:14.899Z,1.55
2022-07-27T16:13:17.572Z,1.58
2022-07-27T16:15:20.424Z,3.03
2022-07-27T16:17:22.966Z,5.88
2022-07-27T16:19:25.469Z,2.83
2022-07-27T16:21:29.655Z,3.10
2022-07-27T16:23:53.827Z,3.63
2022-07-27T16:26:06.722Z,6.60
2022-07-27T16:28:10.407Z,4.15
2022-07-27T16:30:13.115Z,2.65
2022-07-27T16:32:23.114Z,2.87
2022-07-27T16:34:31.674Z,5.15
2022-07-27T16:36:38.622Z,12.73
2022-07-27T16:38:50.192Z,2.95
2022-07-27T16:40:53.233Z,2.13
2022-07-27T16:42:56.756Z,2.10
2022-07-27T16:44:59.420Z,3.88
2022-07-27T16:47:02.830Z,2.83
2022-07-27T16:49:07.522Z,5.13
2022-07-27T16:51:12.101Z,1.92
2022-07-27T16:53:14.605Z,4.28
2022-07-27T16:55:17.299Z,1.85
2022-07-27T16:57:20.280Z,3.65
2022-07-27T16:59:23.005Z,7.43
2022-07-27T17:01:26.681Z,3.50
2022-07-27T17:03:29.864Z,2.97
2022-07-27T17:05:33.172Z,4.03
2022-07-27T17:07:36.116Z,4.50
2022-07-27T17:09:38.640Z,2.35
2022-07-27T17:11:41.198Z,3.42
2022-07-27T17:13:48.910Z,2.00
2022-07-27T17:15:53.801Z,2.05
2022-07-27T17:17:56.462Z,5.53
2022-07-27T17:19:58.985Z,7.05
2022-07-27T17:22:01.813Z,2.92
2022-07-27T17:24:04.687Z,1.50
2022-07-27T17:26:08.031Z,1.42
2022-07-27T17:28:10.762Z,5.00
2022-07-27T17:30:13.389Z,4.15
2022-07-27T17:32:15.979Z,3.33
2022-07-27T17:34:18.556Z,3.97
2022-07-27T17:36:22.032Z,4.32
2022-07-27T17:38:24.620Z,4.88
2022-07-27T17:40:27.259Z,2.80
2022-07-27T17:42:29.933Z,4.90
2022-07-27T17:44:34.158Z,4.32
2022-07-27T17:46:39.041Z,3.45
2022-07-27T17:48:41.958Z,2.88
2022-07-27T17:50:45.341Z,10.10
2022-07-27T17:52:47.984Z,5.10
2022-07-27T17:54:51.195Z,3.13
2022-07-27T17:56:53.977Z,4.93
2022-07-27T17:59:09.081Z,3.20
2022-07-27T18:01:46.380Z,6.45
2022-07-27T18:03:42.075Z,4.55
2022-07-27T18:05:45.490Z,5.30
2022-07-27T18:07:51.658Z,6.05
2022-07-27T18:09:54.553Z,4.43
2022-07-27T18:11:57.047Z,4.35
2022-07-27T18:13:59.669Z,4.45
2022-07-27T18:16:02.358Z,3.88
2022-07-27T18:18:05.153Z,5.50
2022-07-27T18:20:11.839Z,3.70
2022-07-27T18:22:14.626Z,7.47
2022-07-27T18:24:19.633Z,5.38
2022-07-27T18:26:22.335Z,9.73
2022-07-27T18:28:24.938Z,5.70
2022-07-27T18:30:27.902Z,13.98
2022-07-27T18:32:30.412Z,4.55
2022-07-27T18:34:33.019Z,3.40
2022-07-27T18:36:38.958Z,7.40
2022-07-27T18:38:41.567Z,4.75
2022-07-27T18:40:46.233Z,4.30
2022-07-27T18:42:48.908Z,4.57
2022-07-27T18:44:51.534Z,3.83
2022-07-27T18:46:54.076Z,2.88
2022-07-27T18:48:56.964Z,7.40
2022-07-27T18:50:59.577Z,3.65
2022-07-27T18:53:02.128Z,3.72
2022-07-27T18:55:05.479Z,5.70
2022-07-27T18:57:08.002Z,8.05
2022-07-27T18:59:10.845Z,7.38
2022-07-27T19:01:13.697Z,4.32
2022-07-27T19:03:16.326Z,3.72
2022-07-27T19:05:32.593Z,7.13
2022-07-27T19:07:43.777Z,5.20
2022-07-27T19:09:49.081Z,8.98
2022-07-27T19:11:51.629Z,3.42
2022-07-27T19:13:56.885Z,9.48
2022-07-27T19:16:01.001Z,6.88
2022-07-27T19:18:04.991Z,7.05
2022-07-27T19:20:09.596Z,6.20
2022-07-27T19:22:13.009Z,4.65
2022-07-27T19:24:15.760Z,7.88
2022-07-27T19:26:18.666Z,4.57
2022-07-27T19:28:21.718Z,4.90
2022-07-27T19:30:24.266Z,10.18
2022-07-27T19:32:27.421Z,9.20
2022-07-27T19:34:29.944Z,9.15
2022-07-27T19:36:32.497Z,6.13
2022-07-27T19:38:35.642Z,5.63
2022-07-27T19:40:44.541Z,6.00
2022-07-27T19:42:47.883Z,3.05
2022-07-27T19:44:50.646Z,8.05
2022-07-27T19:46:54.627Z,5.68
2022-07-27T19:48:57.232Z,5.60
2022-07-27T19:51:04.854Z,5.70
2022-07-27T19:53:09.399Z,4.82
2022-07-27T19:55:12.121Z,7.25
2022-07-27T19:57:15.085Z,6.72
2022-07-27T19:59:17.623Z,5.13
2022-07-27T20:01:20.299Z,3.33
2022-07-27T20:03:23.477Z,6.38
2022-07-27T20:05:25.954Z,2.88
2022-07-27T20:07:28.469Z,4.18
2022-07-27T20:09:31.041Z,6.72
2022-07-27T20:11:33.969Z,5.93
2022-07-27T20:13:36.557Z,6.60
2022-07-27T20:15:39.442Z,5.70
2022-07-27T20:17:41.928Z,4.88
2022-07-27T20:19:44.748Z,5.40
2022-07-27T20:21:47.314Z,3.55
2022-07-27T20:23:50.389Z,7.30
2022-07-27T20:25:53.083Z,3.55
2022-07-27T20:27:55.633Z,3.92
2022-07-27T20:29:58.099Z,5.22
2022-07-27T20:32:00.647Z,5.45
2022-07-27T20:34:03.192Z,5.78
2022-07-27T20:36:06.216Z,3.25
2022-07-27T20:38:08.828Z,4.03
2022-07-27T20:40:12.173Z,3.05
2022-07-27T20:42:14.745Z,5.38
2022-07-27T20:44:17.246Z,2.78
2022-07-27T20:46:19.828Z,2.20
2022-07-27T20:48:22.441Z,4.32
2022-07-27T20:50:25.260Z,5.47
2022-07-27T20:52:27.861Z,6.85
2022-07-27T20:54:30.722Z,5.40
2022-07-27T20:56:33.400Z,5.80
2022-07-27T20:58:35.950Z,3.13
2022-07-27T21:00:38.662Z,6.32
2022-07-27T21:02:41.569Z,4.50
2022-07-27T21:04:44.427Z,2.50
2022-07-27T21:06:46.893Z,5.05
2022-07-27T21:08:49.477Z,4.80
2022-07-27T21:10:52.101Z,4.03
2022-07-27T21:12:54.679Z,4.82
2022-07-27T21:14:57.184Z,10.02
2022-07-27T21:16:59.812Z,3.42
2022-07-27T21:19:02.461Z,4.00
2022-07-27T21:21:04.983Z,4.95
2022-07-27T21:23:26.265Z,5.85
2022-07-27T21:25:28.989Z,4.53
2022-07-27T21:27:31.939Z,7.28
2022-07-27T21:29:34.696Z,5.60
2022-07-27T21:31:39.049Z,3.15
2022-07-27T21:33:41.652Z,2.53
2022-07-27T21:35:44.327Z,7.43
2022-07-27T21:37:46.888Z,5.63
2022-07-27T21:39:49.410Z,2.63
2022-07-27T21:41:51.964Z,6.75
2022-07-27T21:43:54.566Z,2.50
2022-07-27T21:45:57.076Z,4.43
2022-07-27T21:47:59.637Z,3.05
2022-07-27T21:50:02.339Z,5.07
2022-07-27T21:52:06.735Z,4.88
2022-07-27T21:54:09.321Z,3.28
2022-07-27T21:56:13.733Z,4.57
2022-07-27T21:58:16.677Z,6.63
2022-07-27T22:00:24.186Z,3.22
2022-07-27T22:02:27.479Z,6.72
2022-07-27T22:04:31.107Z,2.95
2022-07-27T22:06:33.703Z,2.40
2022-07-27T22:08:36.559Z,3.65
2022-07-27T22:10:39.271Z,3.05
2022-07-27T22:12:41.800Z,3.75
2022-07-27T22:14:44.351Z,4.97
2022-07-27T22:16:46.950Z,3.85
2022-07-27T22:18:49.537Z,5.35
2022-07-27T22:20:52.462Z,1.42
2022-07-27T22:22:54.993Z,2.35
2022-07-27T22:24:57.552Z,1.83
2022-07-27T22:27:00.232Z,9.50
2022-07-27T22:29:20.801Z,4.20
2022-07-27T22:31:24.239Z,3.30
2022-07-27T22:33:27.724Z,2.95
2022-07-27T22:35:30.487Z,4.68
2022-07-27T22:37:33.054Z,3.75
2022-07-27T22:39:35.681Z,3.58
2022-07-27T22:41:39.804Z,3.67
2022-07-27T22:43:42.378Z,2.97
2022-07-27T22:45:45.000Z,4.45
2022-07-27T22:47:47.596Z,4.30
2022-07-27T22:49:50.698Z,5.97
2022-07-27T22:51:54.465Z,2.38
2022-07-27T22:53:57.232Z,2.72
2022-07-27T22:56:00.550Z,2.88
2022-07-27T22:58:03.887Z,3.15
2022-07-27T23:00:07.333Z,2.28
2022-07-27T23:02:10.305Z,1.98
2022-07-27T23:04:13.247Z,1.95
2022-07-27T23:06:15.927Z,3.53
2022-07-27T23:08:18.558Z,4.38
2022-07-27T23:10:39.465Z,3.92
2022-07-27T23:12:42.066Z,5.38
2022-07-27T23:14:49.029Z,1.85
2022-07-27T23:16:52.782Z,1.83
2022-07-27T23:18:55.408Z,5.25
2022-07-27T23:20:57.972Z,3.78
2022-07-27T23:23:00.655Z,6.13
2022-07-27T23:25:03.990Z,3.17
2022-07-27T23:27:09.739Z,4.97
2022-07-27T23:29:12.258Z,6.18
2022-07-27T23:31:16.111Z,6.38
2022-07-27T23:33:18.749Z,1.90
2022-07-27T23:35:21.434Z,4.63
2022-07-27T23:37:24.060Z,3.58
2022-07-27T23:39:27.749Z,3.20
2022-07-27T23:41:30.261Z,2.80
2022-07-27T23:43:32.874Z,2.78
2022-07-27T23:45:35.469Z,9.30
2022-07-27T23:47:38.374Z,3.33
2022-07-27T23:49:41.227Z,4.88
2022-07-27T23:51:44.576Z,3.65
2022-07-27T23:53:48.155Z,4.22
2022-07-27T23:55:50.901Z,6.05
2022-07-27T23:57:53.633Z,7.40
2022-07-27T23:59:56.292Z,3.67
